sensor_id;sensor_type;location;lat;lon;timestamp;pressure;altitude;pressure_sealevel;temperature;humidity
63903;BME280;50072;50.678;13.938;2023-01-30T00:01:17;99816.09;;;-3.42;79.64
63903;BME280;50072;50.678;13.938;2023-01-30T00:04:09;99802.72;;;-3.50;79.16
63903;BME280;50072;50.678;13.938;2023-01-30T00:06:40;99795.88;;;-3.46;79.63
63903;BME280;50072;50.678;13.938;2023-01-30T00:09:12;99788.03;;;-3.46;80.19
63903;BME280;50072;50.678;13.938;2023-01-30T00:11:39;99780.28;;;-3.43;80.20
63903;BME280;50072;50.678;13.938;2023-01-30T00:14:11;99778.22;;;-3.53;80.01
63903;BME280;50072;50.678;13.938;2023-01-30T00:16:38;99776.31;;;-3.57;80.09
63903;BME280;50072;50.678;13.938;2023-01-30T00:19:10;99777.25;;;-3.55;80.99
63903;BME280;50072;50.678;13.938;2023-01-30T00:21:38;99768.66;;;-3.51;81.00
63903;BME280;50072;50.678;13.938;2023-01-30T00:24:11;99758.53;;;-3.42;79.91
63903;BME280;50072;50.678;13.938;2023-01-30T00:26:39;99741.88;;;-3.44;79.46
63903;BME280;50072;50.678;13.938;2023-01-30T00:29:08;99741.69;;;-3.50;80.34
63903;BME280;50072;50.678;13.938;2023-01-30T00:31:34;99744.25;;;-3.52;80.82
63903;BME280;50072;50.678;13.938;2023-01-30T00:34:00;99744.06;;;-3.56;80.60
63903;BME280;50072;50.678;13.938;2023-01-30T00:36:38;99747.38;;;-3.62;79.74
63903;BME280;50072;50.678;13.938;2023-01-30T00:39:04;99752.91;;;-3.53;79.72
63903;BME280;50072;50.678;13.938;2023-01-30T00:41:39;99740.56;;;-3.57;80.26
63903;BME280;50072;50.678;13.938;2023-01-30T00:44:29;99738.28;;;-3.48;80.01
63903;BME280;50072;50.678;13.938;2023-01-30T00:47:38;99735.47;;;-3.52;79.85
63903;BME280;50072;50.678;13.938;2023-01-30T00:50:05;99744.16;;;-3.55;80.01
63903;BME280;50072;50.678;13.938;2023-01-30T00:52:36;99734.75;;;-3.48;79.87
63903;BME280;50072;50.678;13.938;2023-01-30T00:55:08;99731.34;;;-3.45;80.20
63903;BME280;50072;50.678;13.938;2023-01-30T00:57:39;99734.97;;;-3.42;80.65
63903;BME280;50072;50.678;13.938;2023-01-30T01:00:06;99727.84;;;-3.46;80.54
63903;BME280;50072;50.678;13.938;2023-01-30T01:02:35;99727.16;;;-3.40;80.55
63903;BME280;50072;50.678;13.938;2023-01-30T01:05:08;99721.28;;;-3.33;80.35
63903;BME280;50072;50.678;13.938;2023-01-30T01:07:36;99715.34;;;-3.27;80.18
63903;BME280;50072;50.678;13.938;2023-01-30T01:10:09;99711.00;;;-3.27;80.29
63903;BME280;50072;50.678;13.938;2023-01-30T01:13:08;99708.78;;;-3.15;80.98
63903;BME280;50072;50.678;13.938;2023-01-30T01:15:37;99701.22;;;-3.04;80.13
63903;BME280;50072;50.678;13.938;2023-01-30T01:18:06;99697.97;;;-2.95;79.73
63903;BME280;50072;50.678;13.938;2023-01-30T01:20:38;99707.88;;;-2.86;79.16
63903;BME280;50072;50.678;13.938;2023-01-30T01:23:09;99682.34;;;-2.93;78.64
63903;BME280;50072;50.678;13.938;2023-01-30T01:25:36;99679.78;;;-2.92;79.03
63903;BME280;50072;50.678;13.938;2023-01-30T01:28:09;99679.06;;;-2.86;79.54
63903;BME280;50072;50.678;13.938;2023-01-30T01:30:38;99676.66;;;-2.79;78.42
63903;BME280;50072;50.678;13.938;2023-01-30T01:33:07;99668.66;;;-2.83;77.92
63903;BME280;50072;50.678;13.938;2023-01-30T01:35:40;99668.59;;;-2.86;78.63
63903;BME280;50072;50.678;13.938;2023-01-30T01:38:09;99679.81;;;-2.90;79.11
63903;BME280;50072;50.678;13.938;2023-01-30T01:40:37;99665.94;;;-2.88;78.96
63903;BME280;50072;50.678;13.938;2023-01-30T01:43:30;99647.75;;;-2.82;78.07
63903;BME280;50072;50.678;13.938;2023-01-30T01:46:17;99633.00;;;-2.78;78.99
63903;BME280;50072;50.678;13.938;2023-01-30T01:48:51;99628.78;;;-2.73;79.56
63903;BME280;50072;50.678;13.938;2023-01-30T01:51:31;99627.31;;;-2.63;79.68
63903;BME280;50072;50.678;13.938;2023-01-30T01:54:16;99642.44;;;-2.53;79.18
63903;BME280;50072;50.678;13.938;2023-01-30T01:56:48;99614.44;;;-2.54;78.98
63903;BME280;50072;50.678;13.938;2023-01-30T01:59:32;99606.81;;;-2.46;78.98
63903;BME280;50072;50.678;13.938;2023-01-30T02:02:10;99610.34;;;-2.44;79.49
63903;BME280;50072;50.678;13.938;2023-01-30T02:04:47;99600.91;;;-2.37;78.99
63903;BME280;50072;50.678;13.938;2023-01-30T02:07:52;99605.41;;;-2.32;78.62
63903;BME280;50072;50.678;13.938;2023-01-30T02:10:47;99596.78;;;-2.28;78.57
63903;BME280;50072;50.678;13.938;2023-01-30T02:13:39;99586.13;;;-2.34;78.94
63903;BME280;50072;50.678;13.938;2023-01-30T02:16:10;99587.84;;;-2.36;79.31
63903;BME280;50072;50.678;13.938;2023-01-30T02:18:40;99581.63;;;-2.39;79.62
63903;BME280;50072;50.678;13.938;2023-01-30T02:27:38;99561.63;;;-2.36;79.53
63903;BME280;50072;50.678;13.938;2023-01-30T02:42:48;99537.28;;;-1.95;76.33
63903;BME280;50072;50.678;13.938;2023-01-30T02:48:40;99528.56;;;-1.93;75.96
63903;BME280;50072;50.678;13.938;2023-01-30T02:54:13;99504.91;;;-1.96;75.74
63903;BME280;50072;50.678;13.938;2023-01-30T02:59:53;99515.44;;;-1.93;75.72
63903;BME280;50072;50.678;13.938;2023-01-30T03:02:47;99527.72;;;-1.92;76.26
63903;BME280;50072;50.678;13.938;2023-01-30T03:10:53;99513.84;;;-1.86;76.65
63903;BME280;50072;50.678;13.938;2023-01-30T03:16:38;99504.47;;;-1.76;76.55
63903;BME280;50072;50.678;13.938;2023-01-30T03:19:09;99499.47;;;-1.65;75.82
63903;BME280;50072;50.678;13.938;2023-01-30T03:22:08;99486.47;;;-1.58;75.23
63903;BME280;50072;50.678;13.938;2023-01-30T03:24:38;99482.25;;;-1.51;74.82
63903;BME280;50072;50.678;13.938;2023-01-30T03:27:12;99455.16;;;-1.48;75.64
63903;BME280;50072;50.678;13.938;2023-01-30T03:29:39;99441.97;;;-1.51;75.41
63903;BME280;50072;50.678;13.938;2023-01-30T03:32:12;99445.50;;;-1.52;75.00
63903;BME280;50072;50.678;13.938;2023-01-30T03:34:38;99434.25;;;-1.45;76.25
63903;BME280;50072;50.678;13.938;2023-01-30T03:37:08;99435.22;;;-1.39;74.56
63903;BME280;50072;50.678;13.938;2023-01-30T03:39:38;99427.47;;;-1.34;74.33
63903;BME280;50072;50.678;13.938;2023-01-30T03:42:09;99422.22;;;-1.34;74.32
63903;BME280;50072;50.678;13.938;2023-01-30T03:44:38;99431.09;;;-1.26;75.32
63903;BME280;50072;50.678;13.938;2023-01-30T03:47:08;99422.28;;;-1.31;74.85
63903;BME280;50072;50.678;13.938;2023-01-30T03:49:40;99409.31;;;-1.20;75.09
63903;BME280;50072;50.678;13.938;2023-01-30T03:52:11;99402.28;;;-1.23;74.71
63903;BME280;50072;50.678;13.938;2023-01-30T03:54:38;99397.94;;;-1.20;75.23
63903;BME280;50072;50.678;13.938;2023-01-30T03:57:10;99381.41;;;-1.15;75.34
63903;BME280;50072;50.678;13.938;2023-01-30T03:59:38;99364.81;;;-1.14;74.74
63903;BME280;50072;50.678;13.938;2023-01-30T04:02:09;99367.47;;;-1.12;75.03
63903;BME280;50072;50.678;13.938;2023-01-30T04:04:38;99358.75;;;-1.10;74.76
63903;BME280;50072;50.678;13.938;2023-01-30T04:07:08;99349.91;;;-1.15;74.44
63903;BME280;50072;50.678;13.938;2023-01-30T04:09:40;99369.09;;;-1.17;74.78
63903;BME280;50072;50.678;13.938;2023-01-30T04:12:09;99364.59;;;-1.25;73.17
63903;BME280;50072;50.678;13.938;2023-01-30T04:14:40;99357.53;;;-1.29;73.90
63903;BME280;50072;50.678;13.938;2023-01-30T04:17:09;99349.56;;;-1.35;74.86
63903;BME280;50072;50.678;13.938;2023-01-30T04:19:40;99340.97;;;-1.25;75.28
63903;BME280;50072;50.678;13.938;2023-01-30T04:22:09;99358.50;;;-1.24;74.35
63903;BME280;50072;50.678;13.938;2023-01-30T04:24:40;99362.84;;;-1.26;73.42
63903;BME280;50072;50.678;13.938;2023-01-30T04:27:06;99366.44;;;-1.20;74.24
63903;BME280;50072;50.678;13.938;2023-01-30T04:29:35;99363.72;;;-1.27;75.76
63903;BME280;50072;50.678;13.938;2023-01-30T04:32:08;99353.25;;;-1.24;75.68
63903;BME280;50072;50.678;13.938;2023-01-30T04:34:39;99356.69;;;-1.28;76.02
63903;BME280;50072;50.678;13.938;2023-01-30T04:37:11;99349.72;;;-1.24;75.92
63903;BME280;50072;50.678;13.938;2023-01-30T04:39:39;99341.81;;;-1.26;76.06
63903;BME280;50072;50.678;13.938;2023-01-30T04:42:05;99327.09;;;-1.17;76.38
63903;BME280;50072;50.678;13.938;2023-01-30T04:44:38;99321.88;;;-1.16;76.35
63903;BME280;50072;50.678;13.938;2023-01-30T04:47:10;99311.38;;;-1.14;76.42
63903;BME280;50072;50.678;13.938;2023-01-30T04:49:38;99316.63;;;-1.14;75.25
63903;BME280;50072;50.678;13.938;2023-01-30T04:52:09;99310.63;;;-1.07;74.89
63903;BME280;50072;50.678;13.938;2023-01-30T04:54:34;99308.81;;;-1.11;74.25
63903;BME280;50072;50.678;13.938;2023-01-30T04:57:08;99306.28;;;-1.05;75.02
63903;BME280;50072;50.678;13.938;2023-01-30T04:59:38;99286.28;;;-0.97;74.09
63903;BME280;50072;50.678;13.938;2023-01-30T05:02:08;99284.59;;;-0.92;74.71
63903;BME280;50072;50.678;13.938;2023-01-30T05:04:34;99270.63;;;-0.89;74.07
63903;BME280;50072;50.678;13.938;2023-01-30T05:07:00;99260.09;;;-0.91;73.99
63903;BME280;50072;50.678;13.938;2023-01-30T05:09:26;99262.72;;;-0.92;74.20
63903;BME280;50072;50.678;13.938;2023-01-30T05:11:54;99257.44;;;-0.92;74.32
63903;BME280;50072;50.678;13.938;2023-01-30T05:14:20;99239.94;;;-0.92;74.25
63903;BME280;50072;50.678;13.938;2023-01-30T05:16:47;99249.44;;;-1.00;74.94
63903;BME280;50072;50.678;13.938;2023-01-30T05:19:13;99239.00;;;-0.97;74.72
63903;BME280;50072;50.678;13.938;2023-01-30T05:21:47;99248.84;;;-0.80;75.07
63903;BME280;50072;50.678;13.938;2023-01-30T05:24:16;99238.28;;;-0.85;74.39
63903;BME280;50072;50.678;13.938;2023-01-30T05:26:42;99218.09;;;-0.88;74.56
63903;BME280;50072;50.678;13.938;2023-01-30T05:29:08;99212.94;;;-0.81;75.06
63903;BME280;50072;50.678;13.938;2023-01-30T05:31:36;99197.13;;;-0.83;73.98
63903;BME280;50072;50.678;13.938;2023-01-30T05:34:03;99205.97;;;-0.78;74.73
63903;BME280;50072;50.678;13.938;2023-01-30T05:36:29;99213.09;;;-0.69;74.49
63903;BME280;50072;50.678;13.938;2023-01-30T05:38:55;99200.94;;;-0.61;74.32
63903;BME280;50072;50.678;13.938;2023-01-30T05:41:21;99184.97;;;-0.76;74.63
63903;BME280;50072;50.678;13.938;2023-01-30T05:43:49;99174.50;;;-0.72;74.54
63903;BME280;50072;50.678;13.938;2023-01-30T05:46:15;99182.38;;;-0.73;74.54
63903;BME280;50072;50.678;13.938;2023-01-30T05:48:42;99186.72;;;-0.78;74.82
63903;BME280;50072;50.678;13.938;2023-01-30T05:51:19;99183.31;;;-0.71;75.70
63903;BME280;50072;50.678;13.938;2023-01-30T05:53:46;99191.19;;;-0.71;76.10
63903;BME280;50072;50.678;13.938;2023-01-30T05:56:14;99171.88;;;-0.72;76.12
63903;BME280;50072;50.678;13.938;2023-01-30T05:58:40;99167.31;;;-0.90;76.37
63903;BME280;50072;50.678;13.938;2023-01-30T06:01:09;99176.94;;;-0.89;77.15
63903;BME280;50072;50.678;13.938;2023-01-30T06:03:37;99170.81;;;-0.88;77.56
63903;BME280;50072;50.678;13.938;2023-01-30T06:06:05;99163.75;;;-0.92;76.53
63903;BME280;50072;50.678;13.938;2023-01-30T06:08:33;99153.38;;;-0.82;77.32
63903;BME280;50072;50.678;13.938;2023-01-30T06:11:05;99159.34;;;-0.93;76.22
63903;BME280;50072;50.678;13.938;2023-01-30T06:13:33;99147.00;;;-1.01;76.65
63903;BME280;50072;50.678;13.938;2023-01-30T06:16:01;99147.25;;;-0.81;77.22
63903;BME280;50072;50.678;13.938;2023-01-30T06:18:27;99152.66;;;-0.69;76.69
63903;BME280;50072;50.678;13.938;2023-01-30T06:20:53;99149.03;;;-0.77;76.52
63903;BME280;50072;50.678;13.938;2023-01-30T06:23:20;99151.72;;;-0.74;78.19
63903;BME280;50072;50.678;13.938;2023-01-30T06:25:49;99143.88;;;-0.71;77.33
63903;BME280;50072;50.678;13.938;2023-01-30T06:28:16;99129.75;;;-0.81;77.73
63903;BME280;50072;50.678;13.938;2023-01-30T06:30:44;99129.72;;;-0.85;78.45
63903;BME280;50072;50.678;13.938;2023-01-30T06:33:10;99135.81;;;-0.85;78.17
63903;BME280;50072;50.678;13.938;2023-01-30T06:35:37;99127.09;;;-0.82;78.62
63903;BME280;50072;50.678;13.938;2023-01-30T06:38:04;99133.25;;;-0.80;79.00
63903;BME280;50072;50.678;13.938;2023-01-30T06:40:31;99123.56;;;-0.84;77.75
63903;BME280;50072;50.678;13.938;2023-01-30T06:42:57;99137.75;;;-0.70;77.99
63903;BME280;50072;50.678;13.938;2023-01-30T06:45:24;99148.38;;;-0.62;79.10
63903;BME280;50072;50.678;13.938;2023-01-30T06:47:52;99137.00;;;-0.61;78.43
63903;BME280;50072;50.678;13.938;2023-01-30T06:50:20;99134.38;;;-0.60;78.13
63903;BME280;50072;50.678;13.938;2023-01-30T06:52:49;99105.56;;;-0.49;77.86
63903;BME280;50072;50.678;13.938;2023-01-30T06:55:18;99097.50;;;-0.66;78.01
63903;BME280;50072;50.678;13.938;2023-01-30T06:57:47;99108.09;;;-0.60;78.16
63903;BME280;50072;50.678;13.938;2023-01-30T07:00:19;99104.47;;;-0.71;78.27
63903;BME280;50072;50.678;13.938;2023-01-30T07:02:46;99089.66;;;-0.63;78.31
63903;BME280;50072;50.678;13.938;2023-01-30T07:05:12;99079.19;;;-0.60;78.54
63903;BME280;50072;50.678;13.938;2023-01-30T07:07:38;99080.00;;;-0.67;78.39
63903;BME280;50072;50.678;13.938;2023-01-30T07:10:09;99086.09;;;-0.68;79.01
63903;BME280;50072;50.678;13.938;2023-01-30T07:12:39;99084.47;;;-0.57;80.29
63903;BME280;50072;50.678;13.938;2023-01-30T07:15:10;99074.03;;;-0.49;80.15
63903;BME280;50072;50.678;13.938;2023-01-30T07:17:40;99088.84;;;-0.56;79.90
63903;BME280;50072;50.678;13.938;2023-01-30T07:20:10;99094.22;;;-0.46;80.14
63903;BME280;50072;50.678;13.938;2023-01-30T07:22:39;99092.44;;;-0.47;81.33
63903;BME280;50072;50.678;13.938;2023-01-30T07:25:10;99086.34;;;-0.45;81.07
63903;BME280;50072;50.678;13.938;2023-01-30T07:27:38;99092.41;;;-0.50;81.28
63903;BME280;50072;50.678;13.938;2023-01-30T07:30:09;99092.53;;;-0.38;82.22
63903;BME280;50072;50.678;13.938;2023-01-30T07:32:38;99078.47;;;-0.40;82.88
63903;BME280;50072;50.678;13.938;2023-01-30T07:35:09;99084.72;;;-0.27;82.30
63903;BME280;50072;50.678;13.938;2023-01-30T07:37:34;99089.09;;;-0.32;83.47
63903;BME280;50072;50.678;13.938;2023-01-30T07:40:09;99095.19;;;-0.37;84.43
63903;BME280;50072;50.678;13.938;2023-01-30T07:42:38;99086.38;;;-0.40;85.55
63903;BME280;50072;50.678;13.938;2023-01-30T07:45:10;99091.72;;;-0.34;85.58
63903;BME280;50072;50.678;13.938;2023-01-30T07:47:39;99104.91;;;-0.25;86.47
63903;BME280;50072;50.678;13.938;2023-01-30T07:50:10;99092.59;;;-0.32;86.73
63903;BME280;50072;50.678;13.938;2023-01-30T07:52:38;99098.78;;;-0.28;86.79
63903;BME280;50072;50.678;13.938;2023-01-30T07:55:11;99090.00;;;-0.26;86.82
63903;BME280;50072;50.678;13.938;2023-01-30T07:57:36;99088.19;;;-0.31;87.90
63903;BME280;50072;50.678;13.938;2023-01-30T08:00:04;99082.97;;;-0.30;88.34
63903;BME280;50072;50.678;13.938;2023-01-30T08:02:30;99083.03;;;-0.22;89.25
63903;BME280;50072;50.678;13.938;2023-01-30T08:04:56;99080.41;;;-0.21;89.38
63903;BME280;50072;50.678;13.938;2023-01-30T08:07:22;99084.00;;;-0.12;89.53
63903;BME280;50072;50.678;13.938;2023-01-30T08:09:48;99082.22;;;-0.13;89.94
63903;BME280;50072;50.678;13.938;2023-01-30T08:12:15;99073.53;;;-0.05;90.21
63903;BME280;50072;50.678;13.938;2023-01-30T08:14:41;99069.19;;;-0.01;90.57
63903;BME280;50072;50.678;13.938;2023-01-30T08:17:07;99075.34;;;0.04;90.98
63903;BME280;50072;50.678;13.938;2023-01-30T08:19:33;99059.66;;;0.16;91.17
63903;BME280;50072;50.678;13.938;2023-01-30T08:22:00;99060.56;;;0.20;91.22
63903;BME280;50072;50.678;13.938;2023-01-30T08:24:28;99057.97;;;0.25;92.12
63903;BME280;50072;50.678;13.938;2023-01-30T08:26:54;99060.59;;;0.23;92.22
63903;BME280;50072;50.678;13.938;2023-01-30T08:29:22;99051.06;;;0.47;92.32
63903;BME280;50072;50.678;13.938;2023-01-30T08:31:48;99046.72;;;0.55;92.66
63903;BME280;50072;50.678;13.938;2023-01-30T08:34:14;99056.44;;;0.64;92.31
63903;BME280;50072;50.678;13.938;2023-01-30T08:36:41;99060.84;;;0.71;92.96
63903;BME280;50072;50.678;13.938;2023-01-30T08:39:07;99046.03;;;1.01;92.21
63903;BME280;50072;50.678;13.938;2023-01-30T08:41:33;99045.22;;;1.19;91.31
63903;BME280;50072;50.678;13.938;2023-01-30T08:44:00;99054.91;;;1.28;90.82
63903;BME280;50072;50.678;13.938;2023-01-30T08:46:27;99040.88;;;1.33;90.72
63903;BME280;50072;50.678;13.938;2023-01-30T08:48:53;99039.09;;;1.25;91.01
63903;BME280;50072;50.678;13.938;2023-01-30T08:51:19;99044.31;;;1.15;91.79
63903;BME280;50072;50.678;13.938;2023-01-30T08:53:47;99039.09;;;1.18;91.92
63903;BME280;50072;50.678;13.938;2023-01-30T08:56:19;99031.19;;;1.20;92.09
63903;BME280;50072;50.678;13.938;2023-01-30T08:58:45;99033.81;;;1.22;92.80
63903;BME280;50072;50.678;13.938;2023-01-30T09:01:39;99037.31;;;1.16;92.81
63903;BME280;50072;50.678;13.938;2023-01-30T09:04:08;99038.22;;;1.24;93.44
63903;BME280;50072;50.678;13.938;2023-01-30T09:06:38;99051.41;;;1.36;92.61
63903;BME280;50072;50.678;13.938;2023-01-30T09:09:08;99049.63;;;1.34;92.76
63903;BME280;50072;50.678;13.938;2023-01-30T09:11:38;99039.09;;;1.31;93.11
63903;BME280;50072;50.678;13.938;2023-01-30T09:14:10;99039.09;;;1.31;93.40
63903;BME280;50072;50.678;13.938;2023-01-30T09:16:38;99041.78;;;1.37;93.35
63903;BME280;50072;50.678;13.938;2023-01-30T09:19:08;99035.63;;;1.47;92.89
63903;BME280;50072;50.678;13.938;2023-01-30T09:21:38;99028.59;;;1.62;92.72
63903;BME280;50072;50.678;13.938;2023-01-30T09:24:08;99031.25;;;1.72;92.07
63903;BME280;50072;50.678;13.938;2023-01-30T09:26:41;99027.72;;;1.92;91.47
63903;BME280;50072;50.678;13.938;2023-01-30T09:32:07;99037.34;;;2.35;90.05
63903;BME280;50072;50.678;13.938;2023-01-30T09:34:38;99026.75;;;2.47;89.24
63903;BME280;50072;50.678;13.938;2023-01-30T09:37:10;99023.97;;;2.86;88.32
63903;BME280;50072;50.678;13.938;2023-01-30T09:39:38;99027.47;;;2.88;87.43
63903;BME280;50072;50.678;13.938;2023-01-30T09:42:14;99028.47;;;2.68;87.90
63903;BME280;50072;50.678;13.938;2023-01-30T09:53:53;99019.75;;;2.37;89.79
63903;BME280;50072;50.678;13.938;2023-01-30T09:56:36;99018.84;;;2.41;89.68
63903;BME280;50072;50.678;13.938;2023-01-30T09:59:29;99014.47;;;2.29;90.23
63903;BME280;50072;50.678;13.938;2023-01-30T10:02:23;99011.84;;;2.23;90.38
63903;BME280;50072;50.678;13.938;2023-01-30T10:04:57;98995.97;;;2.31;91.05
63903;BME280;50072;50.678;13.938;2023-01-30T10:13:01;98992.31;;;2.80;90.82
63903;BME280;50072;50.678;13.938;2023-01-30T10:15:52;98994.03;;;2.79;90.56
63903;BME280;50072;50.678;13.938;2023-01-30T10:26:35;98972.06;;;2.69;90.21
63903;BME280;50072;50.678;13.938;2023-01-30T10:29:06;98952.72;;;2.66;90.01
63903;BME280;50072;50.678;13.938;2023-01-30T10:31:51;98950.13;;;2.55;90.02
63903;BME280;50072;50.678;13.938;2023-01-30T10:34:35;98951.00;;;2.55;91.12
63903;BME280;50072;50.678;13.938;2023-01-30T10:37:13;98962.47;;;2.51;91.70
63903;BME280;50072;50.678;13.938;2023-01-30T10:45:21;98950.94;;;2.72;90.70
63903;BME280;50072;50.678;13.938;2023-01-30T10:50:51;98932.25;;;3.03;90.63
63903;BME280;50072;50.678;13.938;2023-01-30T10:53:25;98941.94;;;3.03;90.84
63903;BME280;50072;50.678;13.938;2023-01-30T10:56:02;98937.53;;;3.03;90.08
63903;BME280;50072;50.678;13.938;2023-01-30T10:59:42;98936.69;;;3.00;89.67
63903;BME280;50072;50.678;13.938;2023-01-30T11:01:44;98928.78;;;2.93;89.92
63903;BME280;50072;50.678;13.938;2023-01-30T11:04:40;98931.47;;;2.87;89.91
63903;BME280;50072;50.678;13.938;2023-01-30T11:07:10;98932.31;;;2.94;90.23
63903;BME280;50072;50.678;13.938;2023-01-30T11:09:46;98924.41;;;2.92;90.09
63903;BME280;50072;50.678;13.938;2023-01-30T11:12:13;98930.56;;;2.90;90.32
63903;BME280;50072;50.678;13.938;2023-01-30T11:14:58;98934.97;;;2.91;91.27
63903;BME280;50072;50.678;13.938;2023-01-30T11:17:40;98935.78;;;2.99;91.18
63903;BME280;50072;50.678;13.938;2023-01-30T11:22:51;;;;2.91;
63903;BME280;50072;50.678;13.938;2023-01-30T11:25:25;98932.34;;;2.89;91.57
63903;BME280;50072;50.678;13.938;2023-01-30T11:27:59;98926.19;;;2.87;91.08
63903;BME280;50072;50.678;13.938;2023-01-30T11:30:34;98926.19;;;2.87;90.91
63903;BME280;50072;50.678;13.938;2023-01-30T11:35:39;98919.84;;;3.13;89.56
63903;BME280;50072;50.678;13.938;2023-01-30T11:38:20;98911.94;;;3.10;90.31
63903;BME280;50072;50.678;13.938;2023-01-30T11:40:47;98911.19;;;2.92;91.37
63903;BME280;50072;50.678;13.938;2023-01-30T11:43:15;98918.25;;;2.87;91.83
63903;BME280;50072;50.678;13.938;2023-01-30T11:45:46;98914.78;;;2.79;91.31
63903;BME280;50072;50.678;13.938;2023-01-30T11:48:19;98915.66;;;2.80;92.22
63903;BME280;50072;50.678;13.938;2023-01-30T11:50:47;98916.63;;;2.65;92.43
63903;BME280;50072;50.678;13.938;2023-01-30T11:53:36;98911.31;;;2.71;92.79
63903;BME280;50072;50.678;13.938;2023-01-30T11:56:11;98902.47;;;2.72;92.20
63903;BME280;50072;50.678;13.938;2023-01-30T11:58:39;98909.47;;;2.79;92.62
63903;BME280;50072;50.678;13.938;2023-01-30T12:01:10;98901.56;;;2.79;92.59
63903;BME280;50072;50.678;13.938;2023-01-30T12:03:47;98898.06;;;2.77;92.85
63903;BME280;50072;50.678;13.938;2023-01-30T12:06:22;98895.44;;;2.69;92.87
63903;BME280;50072;50.678;13.938;2023-01-30T12:08:52;98900.72;;;2.74;92.22
63903;BME280;50072;50.678;13.938;2023-01-30T12:11:31;98905.09;;;2.78;92.57
63903;BME280;50072;50.678;13.938;2023-01-30T12:14:15;98907.72;;;2.81;92.36
63903;BME280;50072;50.678;13.938;2023-01-30T12:17:01;98898.06;;;2.75;91.82
63903;BME280;50072;50.678;13.938;2023-01-30T12:19:44;98896.22;;;2.88;92.37
63903;BME280;50072;50.678;13.938;2023-01-30T12:25:07;98912.03;;;2.96;91.33
63903;BME280;50072;50.678;13.938;2023-01-30T12:33:11;98889.97;;;3.02;93.53
63903;BME280;50072;50.678;13.938;2023-01-30T12:38:28;98884.78;;;2.86;92.45
63903;BME280;50072;50.678;13.938;2023-01-30T12:44:12;98868.09;;;2.81;93.86
63903;BME280;50072;50.678;13.938;2023-01-30T12:55:21;98845.06;;;2.97;94.57
63903;BME280;50072;50.678;13.938;2023-01-30T12:58:03;98848.56;;;3.04;90.32
63903;BME280;50072;50.678;13.938;2023-01-30T13:03:44;98846.75;;;3.06;89.16
63903;BME280;50072;50.678;13.938;2023-01-30T13:09:11;98835.13;;;3.27;86.66
63903;BME280;50072;50.678;13.938;2023-01-30T13:17:44;98836.38;;;3.80;82.28
63903;BME280;50072;50.678;13.938;2023-01-30T13:20:42;98828.38;;;3.85;82.77
63903;BME280;50072;50.678;13.938;2023-01-30T13:23:33;98816.06;;;3.81;82.07
63903;BME280;50072;50.678;13.938;2023-01-30T13:26:10;98846.09;;;3.77;82.60
63903;BME280;50072;50.678;13.938;2023-01-30T13:28:44;98831.06;;;3.79;81.47
63903;BME280;50072;50.678;13.938;2023-01-30T13:31:18;98832.75;;;3.86;82.02
63903;BME280;50072;50.678;13.938;2023-01-30T13:33:49;98877.75;;;3.86;81.08
63903;BME280;50072;50.678;13.938;2023-01-30T13:36:25;98842.41;;;3.90;80.71
63903;BME280;50072;50.678;13.938;2023-01-30T13:38:59;98838.88;;;3.91;80.45
63903;BME280;50072;50.678;13.938;2023-01-30T13:41:45;98844.91;;;4.04;80.17
63903;BME280;50072;50.678;13.938;2023-01-30T13:44:39;98846.31;;;4.31;81.26
63903;BME280;50072;50.678;13.938;2023-01-30T13:47:36;98845.16;;;4.53;78.05
63903;BME280;50072;50.678;13.938;2023-01-30T13:53:11;98841.72;;;4.44;77.25
63903;BME280;50072;50.678;13.938;2023-01-30T13:56:10;98841.91;;;4.34;77.27
63903;BME280;50072;50.678;13.938;2023-01-30T13:58:48;98840.28;;;4.23;77.81
63903;BME280;50072;50.678;13.938;2023-01-30T14:07:16;98837.69;;;4.17;77.30
63903;BME280;50072;50.678;13.938;2023-01-30T14:10:13;98860.81;;;4.70;74.65
63903;BME280;50072;50.678;13.938;2023-01-30T14:12:50;98853.34;;;4.36;76.19
63903;BME280;50072;50.678;13.938;2023-01-30T14:15:22;98847.97;;;4.42;76.50
63903;BME280;50072;50.678;13.938;2023-01-30T14:18:21;98851.41;;;4.47;74.37
63903;BME280;50072;50.678;13.938;2023-01-30T14:20:49;98862.34;;;4.22;75.81
63903;BME280;50072;50.678;13.938;2023-01-30T14:23:23;98854.53;;;4.10;76.89
63903;BME280;50072;50.678;13.938;2023-01-30T14:25:54;98845.75;;;4.08;76.74
63903;BME280;50072;50.678;13.938;2023-01-30T14:30:53;98864.47;;;3.92;77.69
63903;BME280;50072;50.678;13.938;2023-01-30T14:38:29;98858.25;;;3.95;78.21
63903;BME280;50072;50.678;13.938;2023-01-30T14:54:00;98859.03;;;4.03;77.25
63903;BME280;50072;50.678;13.938;2023-01-30T14:56:49;98854.50;;;4.13;76.76
63903;BME280;50072;50.678;13.938;2023-01-30T15:07:22;98841.38;;;4.05;75.39
63903;BME280;50072;50.678;13.938;2023-01-30T15:09:56;98837.09;;;3.93;77.81
63903;BME280;50072;50.678;13.938;2023-01-30T15:12:49;98837.16;;;3.86;77.36
63903;BME280;50072;50.678;13.938;2023-01-30T15:32:21;98863.47;;;3.06;86.23
63903;BME280;50072;50.678;13.938;2023-01-30T15:37:48;98867.09;;;2.96;85.59
63903;BME280;50072;50.678;13.938;2023-01-30T15:45:46;98867.09;;;2.96;84.87
63903;BME280;50072;50.678;13.938;2023-01-30T15:51:00;98872.34;;;3.04;89.42
63903;BME280;50072;50.678;13.938;2023-01-30T15:53:29;98878.59;;;2.90;91.13
63903;BME280;50072;50.678;13.938;2023-01-30T15:55:59;98869.88;;;2.76;93.48
63903;BME280;50072;50.678;13.938;2023-01-30T15:58:27;98890.22;;;2.62;93.63
63903;BME280;50072;50.678;13.938;2023-01-30T16:00:56;98895.53;;;2.55;94.81
63903;BME280;50072;50.678;13.938;2023-01-30T16:03:27;98880.56;;;2.54;94.28
63903;BME280;50072;50.678;13.938;2023-01-30T16:05:58;98892.91;;;2.54;94.57
63903;BME280;50072;50.678;13.938;2023-01-30T16:10:51;98896.41;;;2.54;92.19
63903;BME280;50072;50.678;13.938;2023-01-30T16:13:18;98905.22;;;2.53;92.90
63903;BME280;50072;50.678;13.938;2023-01-30T16:15:49;98895.53;;;2.57;91.94
63903;BME280;50072;50.678;13.938;2023-01-30T16:18:22;98915.75;;;2.63;91.92
63903;BME280;50072;50.678;13.938;2023-01-30T16:20:54;98918.38;;;2.66;92.33
63903;BME280;50072;50.678;13.938;2023-01-30T16:23:24;98931.56;;;2.70;92.02